createdAt,value
2023-01-30T00:00:06.284Z,19.3
2023-01-30T00:05:09.322Z,21.7
2023-01-30T00:10:06.268Z,20.5
2023-01-30T00:15:06.864Z,8.5
2023-01-30T00:20:06.188Z,15.2
2023-01-30T00:25:06.446Z,20.7
2023-01-30T00:30:06.970Z,16
2023-01-30T00:35:06.308Z,16.4
2023-01-30T00:40:06.787Z,20.3
2023-01-30T00:45:06.198Z,21.2
2023-01-30T00:50:06.503Z,24.5
2023-01-30T00:55:06.928Z,20.4
2023-01-30T01:00:06.393Z,21.6
2023-01-30T01:05:06.541Z,24.4
2023-01-30T01:10:06.997Z,17.8
2023-01-30T01:15:06.292Z,22
2023-01-30T01:20:06.718Z,20.7
2023-01-30T01:25:06.155Z,25.8
2023-01-30T01:30:06.460Z,24
2023-01-30T01:35:06.912Z,23.8
2023-01-30T01:40:06.378Z,23.5
2023-01-30T01:45:06.727Z,24.3
2023-01-30T01:50:07.075Z,22.6
2023-01-30T01:55:07.069Z,25.3
2023-01-30T02:00:06.694Z,25.3
2023-01-30T02:05:06.685Z,20.5
2023-01-30T02:10:06.536Z,23.7
2023-01-30T02:15:06.745Z,15.6
2023-01-30T02:20:06.282Z,25
2023-01-30T02:25:06.233Z,21.6
2023-01-30T02:30:06.688Z,21.5
2023-01-30T02:35:06.467Z,18.1
2023-01-30T02:40:06.387Z,19.7
2023-01-30T02:45:06.224Z,22.5
2023-01-30T02:50:06.915Z,24.7
2023-01-30T02:55:06.201Z,24.4
2023-01-30T03:00:07.203Z,25.6
2023-01-30T03:05:06.124Z,24.8
2023-01-30T03:10:06.915Z,20.8
2023-01-30T03:15:06.412Z,25
2023-01-30T03:20:06.787Z,25.1
2023-01-30T03:25:06.437Z,19.6
2023-01-30T03:30:06.162Z,18.6
2023-01-30T03:35:06.850Z,22.4
2023-01-30T03:40:06.289Z,21.7
2023-01-30T03:45:06.639Z,22.3
2023-01-30T03:50:06.908Z,15.4
2023-01-30T03:55:06.407Z,18.7
2023-01-30T04:00:06.972Z,21.7
2023-01-30T04:05:06.954Z,23.1
2023-01-30T04:10:06.293Z,25.8
2023-01-30T04:15:06.585Z,13
2023-01-30T04:20:07.058Z,18.7
2023-01-30T04:25:06.415Z,12.4
2023-01-30T04:30:06.735Z,8.8
2023-01-30T04:35:06.086Z,12.3
2023-01-30T04:40:06.469Z,17.2
2023-01-30T04:45:06.857Z,16.5
2023-01-30T04:50:06.264Z,12.9
2023-01-30T04:55:06.691Z,13.3
2023-01-30T05:00:06.374Z,17.3
2023-01-30T05:05:06.520Z,16.5
2023-01-30T05:10:07.005Z,13.2
2023-01-30T05:15:06.400Z,12.4
2023-01-30T05:20:06.794Z,15.4
2023-01-30T05:25:06.360Z,12.8
2023-01-30T05:30:06.720Z,12.4
2023-01-30T05:35:06.065Z,10.2
2023-01-30T05:40:06.378Z,17.2
2023-01-30T05:45:06.886Z,17.3
2023-01-30T05:50:06.212Z,10.4
2023-01-30T05:55:06.619Z,7.2
2023-01-30T06:00:07.066Z,17.6
2023-01-30T06:05:06.491Z,16.5
2023-01-30T06:10:06.600Z,13.8
2023-01-30T06:15:06.185Z,7.7
2023-01-30T06:20:06.748Z,9.9
2023-01-30T06:25:06.290Z,17.6
2023-01-30T06:30:06.598Z,19.7
2023-01-30T06:35:06.982Z,14.6
2023-01-30T06:40:06.385Z,8.7
2023-01-30T06:45:06.668Z,13.7
2023-01-30T06:50:06.647Z,19.5
2023-01-30T06:55:06.906Z,19
2023-01-30T07:00:06.356Z,16.8
2023-01-30T07:05:06.526Z,14.3
2023-01-30T07:10:06.972Z,18.3
2023-01-30T07:15:06.212Z,17.3
2023-01-30T07:20:06.581Z,16.3
2023-01-30T07:25:06.971Z,15.4
2023-01-30T07:30:06.309Z,13.9
2023-01-30T07:35:06.755Z,13.6
2023-01-30T07:40:06.098Z,17.4
2023-01-30T07:45:06.601Z,16
2023-01-30T07:50:06.158Z,13.8
2023-01-30T07:55:06.589Z,14.6
2023-01-30T08:00:06.933Z,12.3
2023-01-30T08:05:07.003Z,6
2023-01-30T08:10:06.390Z,11.2
2023-01-30T08:15:06.766Z,13.7
2023-01-30T08:20:06.348Z,15.9
2023-01-30T08:25:06.553Z,13.4
2023-01-30T08:30:06.987Z,8.5
2023-01-30T08:35:06.414Z,13.3
2023-01-30T08:40:06.602Z,7
2023-01-30T08:45:06.584Z,12.6
2023-01-30T08:50:06.998Z,8.2
2023-01-30T08:55:06.411Z,12.7
2023-01-30T09:00:06.879Z,14.7
2023-01-30T09:05:06.128Z,17.1
2023-01-30T09:10:06.598Z,16.5
2023-01-30T09:15:06.890Z,12.3
2023-01-30T09:20:06.376Z,15.2
2023-01-30T09:25:06.778Z,11.1
2023-01-30T09:30:06.210Z,14.4
2023-01-30T09:35:06.595Z,11.6
2023-01-30T09:40:06.087Z,12.7
2023-01-30T09:45:06.612Z,11.4
2023-01-30T09:50:07.035Z,25.3
2023-01-30T09:55:06.997Z,10.7
2023-01-30T10:00:06.253Z,10.9
2023-01-30T10:05:06.964Z,12.5
2023-01-30T10:10:06.594Z,12.3
2023-01-30T10:15:06.900Z,15.4
2023-01-30T10:20:06.625Z,6.5
2023-01-30T10:25:06.738Z,10.2
2023-01-30T10:30:06.931Z,10.2
2023-01-30T10:35:06.269Z,13.3
2023-01-30T10:40:06.598Z,7.9
2023-01-30T10:45:06.760Z,8.7
2023-01-30T10:50:06.706Z,18.1
2023-01-30T10:55:06.131Z,14.8
2023-01-30T11:00:07.098Z,7.1
2023-01-30T11:05:06.251Z,9.3
2023-01-30T11:10:06.736Z,11.2
2023-01-30T11:15:07.073Z,8.4
2023-01-30T11:20:06.114Z,8.8
2023-01-30T11:25:06.970Z,15.2
2023-01-30T11:30:06.818Z,12.1
2023-01-30T11:35:06.661Z,10.8
2023-01-30T11:40:06.875Z,6.7
2023-01-30T11:45:06.706Z,9.7
2023-01-30T11:50:06.386Z,9.7
2023-01-30T11:55:06.849Z,14.7
2023-01-30T12:00:07.095Z,11.4
2023-01-30T12:05:06.960Z,13.2
2023-01-30T12:10:07.068Z,14.9
2023-01-30T12:15:06.877Z,12.7
2023-01-30T12:20:06.194Z,17.8
2023-01-30T12:25:06.558Z,15.1
2023-01-30T12:30:06.295Z,15.1
2023-01-30T12:35:06.143Z,13.4
2023-01-30T12:40:06.784Z,12.7
2023-01-30T12:45:06.777Z,12.2
2023-01-30T12:50:06.085Z,19.3
2023-01-30T12:55:06.965Z,12.2
2023-01-30T13:00:06.948Z,17.7
2023-01-30T13:05:06.618Z,17.7
2023-01-30T13:10:06.485Z,20.2
2023-01-30T13:15:06.784Z,19.6
2023-01-30T13:20:06.307Z,17.3
2023-01-30T13:25:06.432Z,17.5
2023-01-30T13:30:06.836Z,22.5
2023-01-30T13:35:06.395Z,18.9
2023-01-30T13:40:06.306Z,20.1
2023-01-30T13:45:06.863Z,23.1
2023-01-30T13:50:06.133Z,23.6
2023-01-30T13:55:06.585Z,21.8
2023-01-30T14:00:06.712Z,20.8
2023-01-30T14:05:06.913Z,22.5
2023-01-30T14:10:06.953Z,31
2023-01-30T14:15:06.306Z,20.8
2023-01-30T14:20:06.589Z,19.1
2023-01-30T14:25:06.463Z,20
2023-01-30T14:30:06.274Z,20.1
2023-01-30T14:35:06.737Z,21.2
2023-01-30T14:40:06.177Z,21.5
2023-01-30T14:45:06.968Z,22.4
2023-01-30T14:50:06.307Z,25.1
2023-01-30T14:55:06.587Z,23
2023-01-30T15:00:07.025Z,38.4
2023-01-30T15:05:06.113Z,23.2
2023-01-30T15:10:06.922Z,23.7
2023-01-30T15:15:06.706Z,25.3
2023-01-30T15:20:06.100Z,26.6
2023-01-30T15:25:06.690Z,26.9
2023-01-30T15:30:06.229Z,33.8
2023-01-30T15:35:06.604Z,35.2
2023-01-30T15:40:06.939Z,34.1
2023-01-30T15:45:06.157Z,44.3
2023-01-30T15:50:06.214Z,36.5
2023-01-30T15:55:06.558Z,43.7
2023-01-30T16:00:06.371Z,49.4
2023-01-30T16:05:06.589Z,46
2023-01-30T16:10:07.089Z,41.7
2023-01-30T16:15:06.684Z,45.4
2023-01-30T16:20:06.516Z,48
2023-01-30T16:25:06.966Z,47.1
2023-01-30T16:30:06.325Z,40.4
2023-01-30T16:35:06.821Z,44.9
2023-01-30T16:40:06.308Z,58.2
2023-01-30T16:45:06.121Z,42.9
2023-01-30T16:50:06.129Z,44.5
2023-01-30T16:55:06.500Z,67.8
2023-01-30T17:00:06.964Z,58
2023-01-30T17:05:06.186Z,58.9
2023-01-30T17:10:06.535Z,62.1
2023-01-30T17:15:06.144Z,60.7
2023-01-30T17:20:06.658Z,56.3
2023-01-30T17:25:06.611Z,63.2
2023-01-30T17:30:06.940Z,65.7
2023-01-30T17:35:06.244Z,68
2023-01-30T17:40:06.524Z,70.3
2023-01-30T17:45:06.458Z,61.6
2023-01-30T17:50:06.829Z,54.9
2023-01-30T17:55:06.349Z,54.2
2023-01-30T18:00:06.747Z,57.7
2023-01-30T18:05:06.859Z,64.2
2023-01-30T18:10:06.286Z,47.5
2023-01-30T18:15:06.586Z,45.3
2023-01-30T18:20:06.966Z,37
2023-01-30T18:25:06.219Z,33.3
2023-01-30T18:30:06.532Z,36.7
2023-01-30T18:35:06.917Z,36.7
2023-01-30T18:40:06.296Z,49.8
2023-01-30T18:45:06.724Z,50.1
2023-01-30T18:50:06.192Z,55.4
2023-01-30T18:55:06.462Z,51.8
2023-01-30T19:00:06.891Z,50.5
2023-01-30T19:05:07.067Z,38.8
2023-01-30T19:10:06.463Z,33.2
2023-01-30T19:15:06.928Z,30.8
2023-01-30T19:20:06.308Z,26.8
2023-01-30T19:25:06.537Z,26.3
2023-01-30T19:30:07.006Z,30.3
2023-01-30T19:35:06.412Z,27.8
2023-01-30T19:40:06.590Z,31.8
2023-01-30T19:45:07.002Z,30.1
2023-01-30T19:50:06.361Z,26.8
2023-01-30T19:55:06.833Z,37.7
2023-01-30T20:00:06.260Z,41.6
2023-01-30T20:05:06.362Z,36.6
2023-01-30T20:10:06.867Z,35.6
2023-01-30T20:15:06.144Z,38.3
2023-01-30T20:20:06.480Z,42.9
2023-01-30T20:25:06.800Z,44
2023-01-30T20:30:06.604Z,44.3
2023-01-30T20:35:06.986Z,52.2
2023-01-30T20:40:06.338Z,48.9
2023-01-30T20:45:06.625Z,41.1
2023-01-30T20:50:06.965Z,32.3
2023-01-30T20:55:06.320Z,35.8
2023-01-30T21:00:06.698Z,42.9
2023-01-30T21:05:06.714Z,49.3
2023-01-30T21:10:06.307Z,51.7
2023-01-30T21:15:06.570Z,38.6
2023-01-30T21:20:07.012Z,31.6
2023-01-30T21:25:06.326Z,31.3
2023-01-30T21:30:06.657Z,33.9
2023-01-30T21:35:07.038Z,45.9
2023-01-30T21:40:06.385Z,32.9
2023-01-30T21:45:06.826Z,31.1
2023-01-30T21:50:06.142Z,27.8
2023-01-30T21:55:06.353Z,45.3
2023-01-30T22:00:06.717Z,37.1
2023-01-30T22:05:06.936Z,44.1
2023-01-30T22:10:06.296Z,39.7
2023-01-30T22:15:06.743Z,29.9
2023-01-30T22:20:07.077Z,33
2023-01-30T22:25:06.446Z,36.7
2023-01-30T22:30:06.846Z,31.1
2023-01-30T22:35:06.277Z,43.2
2023-01-30T22:40:06.685Z,39.7
2023-01-30T22:45:07.017Z,41.7
2023-01-30T22:50:06.415Z,44.1
2023-01-30T22:55:06.814Z,39.8
2023-01-30T23:00:06.238Z,39.9
2023-01-30T23:05:06.347Z,39.7
2023-01-30T23:10:06.788Z,54.4
2023-01-30T23:15:06.646Z,37.3
2023-01-30T23:20:06.962Z,51.8
2023-01-30T23:25:06.348Z,52.3
2023-01-30T23:30:06.800Z,64.1
2023-01-30T23:35:06.414Z,55.9
2023-01-30T23:40:06.878Z,57.4
2023-01-30T23:45:06.875Z,51.3
2023-01-30T23:50:06.366Z,48.1
2023-01-30T23:55:06.748Z,51.4
